sensor_id;sensor_type;location;lat;lon;timestamp;temperature;humidity
63202;DHT22;49296;48.188;11.566;2023-03-23T00:01:22;13.70;52.06
63202;DHT22;49296;48.188;11.566;2023-03-23T00:03:53;13.59;52.13
63202;DHT22;49296;48.188;11.566;2023-03-23T00:06:23;13.48;52.35
63202;DHT22;49296;48.188;11.566;2023-03-23T00:08:53;13.48;52.36
63202;DHT22;49296;48.188;11.566;2023-03-23T00:11:26;13.51;52.47
63202;DHT22;49296;48.188;11.566;2023-03-23T00:13:55;13.51;52.36
63202;DHT22;49296;48.188;11.566;2023-03-23T00:16:28;13.42;52.67
63202;DHT22;49296;48.188;11.566;2023-03-23T00:18:58;13.42;52.86
63202;DHT22;49296;48.188;11.566;2023-03-23T00:21:26;13.49;52.79
63202;DHT22;49296;48.188;11.566;2023-03-23T00:24:01;13.49;52.75
63202;DHT22;49296;48.188;11.566;2023-03-23T00:26:29;13.60;52.69
63202;DHT22;49296;48.188;11.566;2023-03-23T00:28:59;13.52;52.92
63202;DHT22;49296;48.188;11.566;2023-03-23T00:31:27;13.51;52.96
63202;DHT22;49296;48.188;11.566;2023-03-23T00:33:57;13.55;52.94
63202;DHT22;49296;48.188;11.566;2023-03-23T00:36:27;13.52;53.12
63202;DHT22;49296;48.188;11.566;2023-03-23T00:38:55;13.73;52.78
63202;DHT22;49296;48.188;11.566;2023-03-23T00:41:26;13.69;52.87
63202;DHT22;49296;48.188;11.566;2023-03-23T00:43:54;13.70;52.82
63202;DHT22;49296;48.188;11.566;2023-03-23T00:46:21;13.53;53.15
63202;DHT22;49296;48.188;11.566;2023-03-23T00:48:48;13.45;53.55
63202;DHT22;49296;48.188;11.566;2023-03-23T00:51:17;13.22;54.00
63202;DHT22;49296;48.188;11.566;2023-03-23T00:53:45;13.12;54.34
63202;DHT22;49296;48.188;11.566;2023-03-23T00:56:13;13.06;54.42
63202;DHT22;49296;48.188;11.566;2023-03-23T00:58:42;13.10;54.53
63202;DHT22;49296;48.188;11.566;2023-03-23T01:01:08;13.07;54.47
63202;DHT22;49296;48.188;11.566;2023-03-23T01:03:36;12.94;54.83
63202;DHT22;49296;48.188;11.566;2023-03-23T01:06:08;12.87;55.03
63202;DHT22;49296;48.188;11.566;2023-03-23T01:08:38;12.82;55.24
63202;DHT22;49296;48.188;11.566;2023-03-23T01:11:11;12.83;55.06
63202;DHT22;49296;48.188;11.566;2023-03-23T01:13:39;12.82;55.29
63202;DHT22;49296;48.188;11.566;2023-03-23T01:16:08;12.80;55.22
63202;DHT22;49296;48.188;11.566;2023-03-23T01:18:36;12.93;55.24
63202;DHT22;49296;48.188;11.566;2023-03-23T01:21:04;12.86;54.94
63202;DHT22;49296;48.188;11.566;2023-03-23T01:23:33;12.65;55.42
63202;DHT22;49296;48.188;11.566;2023-03-23T01:26:03;12.70;55.42
63202;DHT22;49296;48.188;11.566;2023-03-23T01:28:31;12.66;55.59
63202;DHT22;49296;48.188;11.566;2023-03-23T01:31:00;12.84;55.17
63202;DHT22;49296;48.188;11.566;2023-03-23T01:33:28;13.01;54.82
63202;DHT22;49296;48.188;11.566;2023-03-23T01:35:56;13.03;54.64
63202;DHT22;49296;48.188;11.566;2023-03-23T01:38:23;13.12;54.55
63202;DHT22;49296;48.188;11.566;2023-03-23T01:40:50;13.17;54.41
63202;DHT22;49296;48.188;11.566;2023-03-23T01:43:17;13.28;54.12
63202;DHT22;49296;48.188;11.566;2023-03-23T01:45:43;13.10;54.26
63202;DHT22;49296;48.188;11.566;2023-03-23T01:48:14;12.99;54.75
63202;DHT22;49296;48.188;11.566;2023-03-23T01:50:51;12.75;55.08
63202;DHT22;49296;48.188;11.566;2023-03-23T01:53:18;12.73;55.34
63202;DHT22;49296;48.188;11.566;2023-03-23T01:55:49;12.91;55.18
63202;DHT22;49296;48.188;11.566;2023-03-23T01:58:19;12.97;54.80
63202;DHT22;49296;48.188;11.566;2023-03-23T02:00:51;13.14;54.54
63202;DHT22;49296;48.188;11.566;2023-03-23T02:03:19;13.10;54.75
63202;DHT22;49296;48.188;11.566;2023-03-23T02:05:50;13.28;54.48
63202;DHT22;49296;48.188;11.566;2023-03-23T02:08:18;13.32;54.54
63202;DHT22;49296;48.188;11.566;2023-03-23T02:10:45;13.36;54.25
63202;DHT22;49296;48.188;11.566;2023-03-23T02:13:12;13.34;54.13
63202;DHT22;49296;48.188;11.566;2023-03-23T02:15:45;13.34;54.19
63202;DHT22;49296;48.188;11.566;2023-03-23T02:18:25;13.38;54.06
63202;DHT22;49296;48.188;11.566;2023-03-23T02:27:40;13.32;54.71
63202;DHT22;49296;48.188;11.566;2023-03-23T02:30:34;13.36;54.47
63202;DHT22;49296;48.188;11.566;2023-03-23T02:33:16;13.36;54.36
63202;DHT22;49296;48.188;11.566;2023-03-23T02:35:47;13.35;54.31
63202;DHT22;49296;48.188;11.566;2023-03-23T02:38:22;13.38;54.21
63202;DHT22;49296;48.188;11.566;2023-03-23T02:40:53;13.31;54.41
63202;DHT22;49296;48.188;11.566;2023-03-23T02:43:24;13.38;54.32
63202;DHT22;49296;48.188;11.566;2023-03-23T02:45:52;13.42;54.48
63202;DHT22;49296;48.188;11.566;2023-03-23T02:48:24;13.38;54.30
63202;DHT22;49296;48.188;11.566;2023-03-23T02:50:53;13.22;54.48
63202;DHT22;49296;48.188;11.566;2023-03-23T02:53:23;13.18;54.48
63202;DHT22;49296;48.188;11.566;2023-03-23T02:55:50;13.08;54.82
63202;DHT22;49296;48.188;11.566;2023-03-23T02:58:20;13.18;54.75
63202;DHT22;49296;48.188;11.566;2023-03-23T03:00:48;13.06;54.98
63202;DHT22;49296;48.188;11.566;2023-03-23T03:03:18;13.12;54.71
63202;DHT22;49296;48.188;11.566;2023-03-23T03:05:55;13.15;54.72
63202;DHT22;49296;48.188;11.566;2023-03-23T03:08:31;13.26;54.61
63202;DHT22;49296;48.188;11.566;2023-03-23T03:11:03;13.32;54.77
63202;DHT22;49296;48.188;11.566;2023-03-23T03:13:38;13.36;54.79
63202;DHT22;49296;48.188;11.566;2023-03-23T03:16:16;13.29;54.34
63202;DHT22;49296;48.188;11.566;2023-03-23T03:18:50;13.34;54.58
63202;DHT22;49296;48.188;11.566;2023-03-23T03:21:21;13.41;54.23
63202;DHT22;49296;48.188;11.566;2023-03-23T03:23:53;13.48;54.64
63202;DHT22;49296;48.188;11.566;2023-03-23T03:26:22;13.53;54.46
63202;DHT22;49296;48.188;11.566;2023-03-23T03:28:53;13.55;54.24
63202;DHT22;49296;48.188;11.566;2023-03-23T03:31:22;13.59;54.36
63202;DHT22;49296;48.188;11.566;2023-03-23T03:33:50;13.58;54.06
63202;DHT22;49296;48.188;11.566;2023-03-23T03:36:22;13.59;54.13
63202;DHT22;49296;48.188;11.566;2023-03-23T03:38:51;13.58;54.15
63202;DHT22;49296;48.188;11.566;2023-03-23T03:41:19;13.56;54.37
63202;DHT22;49296;48.188;11.566;2023-03-23T03:43:46;13.43;54.27
63202;DHT22;49296;48.188;11.566;2023-03-23T03:46:13;13.14;54.89
63202;DHT22;49296;48.188;11.566;2023-03-23T03:48:40;12.90;55.40
63202;DHT22;49296;48.188;11.566;2023-03-23T03:51:07;12.84;55.52
63202;DHT22;49296;48.188;11.566;2023-03-23T03:53:35;12.89;55.60
63202;DHT22;49296;48.188;11.566;2023-03-23T03:56:02;12.87;55.73
63202;DHT22;49296;48.188;11.566;2023-03-23T03:58:31;12.77;55.70
63202;DHT22;49296;48.188;11.566;2023-03-23T04:00:58;12.82;55.80
63202;DHT22;49296;48.188;11.566;2023-03-23T04:03:26;12.90;55.68
63202;DHT22;49296;48.188;11.566;2023-03-23T04:05:53;12.72;55.87
63202;DHT22;49296;48.188;11.566;2023-03-23T04:08:21;12.56;56.39
63202;DHT22;49296;48.188;11.566;2023-03-23T04:10:50;12.46;56.70
63202;DHT22;49296;48.188;11.566;2023-03-23T04:13:17;12.41;56.89
63202;DHT22;49296;48.188;11.566;2023-03-23T04:15:44;12.46;56.87
63202;DHT22;49296;48.188;11.566;2023-03-23T04:18:11;12.57;56.71
63202;DHT22;49296;48.188;11.566;2023-03-23T04:20:41;12.70;56.45
63202;DHT22;49296;48.188;11.566;2023-03-23T04:23:08;12.80;56.14
63202;DHT22;49296;48.188;11.566;2023-03-23T04:25:35;12.65;56.55
63202;DHT22;49296;48.188;11.566;2023-03-23T04:28:03;12.60;56.61
63202;DHT22;49296;48.188;11.566;2023-03-23T04:30:30;12.59;56.66
63202;DHT22;49296;48.188;11.566;2023-03-23T04:32:57;12.67;56.31
63202;DHT22;49296;48.188;11.566;2023-03-23T04:35:27;12.62;56.77
63202;DHT22;49296;48.188;11.566;2023-03-23T04:37:55;12.59;56.83
63202;DHT22;49296;48.188;11.566;2023-03-23T04:40:22;12.52;57.01
63202;DHT22;49296;48.188;11.566;2023-03-23T04:42:49;12.50;57.16
63202;DHT22;49296;48.188;11.566;2023-03-23T04:45:20;12.56;57.08
63202;DHT22;49296;48.188;11.566;2023-03-23T04:47:48;12.57;57.06
63202;DHT22;49296;48.188;11.566;2023-03-23T04:50:18;12.49;57.09
63202;DHT22;49296;48.188;11.566;2023-03-23T04:52:46;12.52;57.24
63202;DHT22;49296;48.188;11.566;2023-03-23T04:55:13;12.46;57.35
63202;DHT22;49296;48.188;11.566;2023-03-23T04:57:40;12.42;57.52
63202;DHT22;49296;48.188;11.566;2023-03-23T05:00:08;12.46;57.37
63202;DHT22;49296;48.188;11.566;2023-03-23T05:02:41;12.53;57.13
63202;DHT22;49296;48.188;11.566;2023-03-23T05:05:08;12.50;57.31
63202;DHT22;49296;48.188;11.566;2023-03-23T05:07:36;12.65;56.97
63202;DHT22;49296;48.188;11.566;2023-03-23T05:10:04;12.67;56.98
63202;DHT22;49296;48.188;11.566;2023-03-23T05:12:31;12.73;56.75
63202;DHT22;49296;48.188;11.566;2023-03-23T05:14:58;12.79;56.79
63202;DHT22;49296;48.188;11.566;2023-03-23T05:17:25;12.75;56.85
63202;DHT22;49296;48.188;11.566;2023-03-23T05:19:53;12.53;57.20
63202;DHT22;49296;48.188;11.566;2023-03-23T05:22:22;12.46;57.50
63202;DHT22;49296;48.188;11.566;2023-03-23T05:24:49;12.42;57.63
63202;DHT22;49296;48.188;11.566;2023-03-23T05:27:18;12.24;58.18
63202;DHT22;49296;48.188;11.566;2023-03-23T05:29:45;12.20;58.41
63202;DHT22;49296;48.188;11.566;2023-03-23T05:32:17;12.31;58.20
63202;DHT22;49296;48.188;11.566;2023-03-23T05:34:44;12.35;58.17
63202;DHT22;49296;48.188;11.566;2023-03-23T05:37:13;12.27;58.36
63202;DHT22;49296;48.188;11.566;2023-03-23T05:39:40;12.28;58.58
63202;DHT22;49296;48.188;11.566;2023-03-23T05:42:06;12.17;58.76
63202;DHT22;49296;48.188;11.566;2023-03-23T05:44:34;12.25;58.46
63202;DHT22;49296;48.188;11.566;2023-03-23T05:47:01;12.29;58.43
63202;DHT22;49296;48.188;11.566;2023-03-23T05:49:28;12.45;57.96
63202;DHT22;49296;48.188;11.566;2023-03-23T05:51:55;12.66;57.69
63202;DHT22;49296;48.188;11.566;2023-03-23T05:54:23;12.84;57.52
63202;DHT22;49296;48.188;11.566;2023-03-23T05:56:51;12.93;57.08
63202;DHT22;49296;48.188;11.566;2023-03-23T05:59:18;13.01;57.26
63202;DHT22;49296;48.188;11.566;2023-03-23T06:01:44;13.18;56.68
63202;DHT22;49296;48.188;11.566;2023-03-23T06:04:11;13.29;56.55
63202;DHT22;49296;48.188;11.566;2023-03-23T06:06:39;13.26;56.22
63202;DHT22;49296;48.188;11.566;2023-03-23T06:09:07;13.17;56.10
63202;DHT22;49296;48.188;11.566;2023-03-23T06:11:35;13.24;56.35
63202;DHT22;49296;48.188;11.566;2023-03-23T06:14:02;13.31;56.01
63202;DHT22;49296;48.188;11.566;2023-03-23T06:16:29;13.39;55.64
63202;DHT22;49296;48.188;11.566;2023-03-23T06:18:57;13.42;55.60
63202;DHT22;49296;48.188;11.566;2023-03-23T06:21:25;13.55;55.70
63202;DHT22;49296;48.188;11.566;2023-03-23T06:23:53;13.58;55.14
63202;DHT22;49296;48.188;11.566;2023-03-23T06:26:24;13.46;55.36
63202;DHT22;49296;48.188;11.566;2023-03-23T06:28:53;13.49;55.29
63202;DHT22;49296;48.188;11.566;2023-03-23T06:31:21;13.39;55.47
63202;DHT22;49296;48.188;11.566;2023-03-23T06:33:48;13.31;55.80
63202;DHT22;49296;48.188;11.566;2023-03-23T06:36:15;13.39;55.65
63202;DHT22;49296;48.188;11.566;2023-03-23T06:38:43;13.34;55.84
63202;DHT22;49296;48.188;11.566;2023-03-23T06:41:11;13.21;55.95
63202;DHT22;49296;48.188;11.566;2023-03-23T06:43:37;13.29;55.91
63202;DHT22;49296;48.188;11.566;2023-03-23T06:46:06;13.34;55.81
63202;DHT22;49296;48.188;11.566;2023-03-23T06:48:33;13.36;55.67
63202;DHT22;49296;48.188;11.566;2023-03-23T06:51:00;13.38;56.17
63202;DHT22;49296;48.188;11.566;2023-03-23T06:53:28;13.55;55.47
63202;DHT22;49296;48.188;11.566;2023-03-23T06:55:54;13.65;55.40
63202;DHT22;49296;48.188;11.566;2023-03-23T06:58:21;13.62;55.51
63202;DHT22;49296;48.188;11.566;2023-03-23T07:00:53;13.80;55.25
63202;DHT22;49296;48.188;11.566;2023-03-23T07:03:22;13.83;55.22
63202;DHT22;49296;48.188;11.566;2023-03-23T07:05:48;13.90;54.97
63202;DHT22;49296;48.188;11.566;2023-03-23T07:08:15;13.93;54.91
63202;DHT22;49296;48.188;11.566;2023-03-23T07:10:42;14.04;54.86
63202;DHT22;49296;48.188;11.566;2023-03-23T07:13:09;14.18;54.34
63202;DHT22;49296;48.188;11.566;2023-03-23T07:15:36;14.10;54.41
63202;DHT22;49296;48.188;11.566;2023-03-23T07:18:03;14.29;53.97
63202;DHT22;49296;48.188;11.566;2023-03-23T07:20:31;14.39;53.77
63202;DHT22;49296;48.188;11.566;2023-03-23T07:22:58;14.32;53.95
63202;DHT22;49296;48.188;11.566;2023-03-23T07:25:27;14.20;54.17
63202;DHT22;49296;48.188;11.566;2023-03-23T07:27:54;14.17;53.77
63202;DHT22;49296;48.188;11.566;2023-03-23T07:30:21;14.24;53.86
63202;DHT22;49296;48.188;11.566;2023-03-23T07:32:47;14.33;53.72
63202;DHT22;49296;48.188;11.566;2023-03-23T07:35:14;14.35;53.22
63202;DHT22;49296;48.188;11.566;2023-03-23T07:37:43;14.35;53.64
63202;DHT22;49296;48.188;11.566;2023-03-23T07:40:11;14.31;53.41
63202;DHT22;49296;48.188;11.566;2023-03-23T07:42:41;14.39;53.29
63202;DHT22;49296;48.188;11.566;2023-03-23T07:45:10;14.49;52.92
63202;DHT22;49296;48.188;11.566;2023-03-23T07:47:37;14.43;52.82
63202;DHT22;49296;48.188;11.566;2023-03-23T07:50:05;14.59;53.12
63202;DHT22;49296;48.188;11.566;2023-03-23T07:52:32;14.53;52.86
63202;DHT22;49296;48.188;11.566;2023-03-23T07:55:01;14.59;53.09
63202;DHT22;49296;48.188;11.566;2023-03-23T07:57:28;14.70;53.38
63202;DHT22;49296;48.188;11.566;2023-03-23T07:59:55;14.83;52.25
63202;DHT22;49296;48.188;11.566;2023-03-23T08:02:23;14.83;52.19
63202;DHT22;49296;48.188;11.566;2023-03-23T08:04:50;14.85;51.89
63202;DHT22;49296;48.188;11.566;2023-03-23T08:07:19;14.88;51.95
63202;DHT22;49296;48.188;11.566;2023-03-23T08:09:46;15.00;52.03
63202;DHT22;49296;48.188;11.566;2023-03-23T08:12:14;15.10;52.07
63202;DHT22;49296;48.188;11.566;2023-03-23T08:14:42;15.05;51.86
63202;DHT22;49296;48.188;11.566;2023-03-23T08:17:08;15.12;51.90
63202;DHT22;49296;48.188;11.566;2023-03-23T08:19:35;15.19;52.10
63202;DHT22;49296;48.188;11.566;2023-03-23T08:22:03;15.28;51.53
63202;DHT22;49296;48.188;11.566;2023-03-23T08:24:30;15.21;51.54
63202;DHT22;49296;48.188;11.566;2023-03-23T08:26:58;15.24;51.23
63202;DHT22;49296;48.188;11.566;2023-03-23T08:29:26;15.39;51.03
63202;DHT22;49296;48.188;11.566;2023-03-23T08:31:53;15.38;50.64
63202;DHT22;49296;48.188;11.566;2023-03-23T08:34:20;15.45;50.49
63202;DHT22;49296;48.188;11.566;2023-03-23T08:36:48;15.40;51.06
63202;DHT22;49296;48.188;11.566;2023-03-23T08:39:17;15.47;50.64
63202;DHT22;49296;48.188;11.566;2023-03-23T08:41:44;15.39;50.13
63202;DHT22;49296;48.188;11.566;2023-03-23T08:44:11;15.46;50.92
63202;DHT22;49296;48.188;11.566;2023-03-23T08:46:39;15.47;49.94
63202;DHT22;49296;48.188;11.566;2023-03-23T08:49:06;15.46;50.34
63202;DHT22;49296;48.188;11.566;2023-03-23T08:51:33;15.29;50.12
63202;DHT22;49296;48.188;11.566;2023-03-23T08:54:01;15.24;50.75
63202;DHT22;49296;48.188;11.566;2023-03-23T08:56:28;15.36;50.48
63202;DHT22;49296;48.188;11.566;2023-03-23T08:58:55;15.56;50.37
63202;DHT22;49296;48.188;11.566;2023-03-23T09:01:22;15.66;50.27
63202;DHT22;49296;48.188;11.566;2023-03-23T09:03:51;15.77;49.95
63202;DHT22;49296;48.188;11.566;2023-03-23T09:06:17;15.79;50.02
63202;DHT22;49296;48.188;11.566;2023-03-23T09:08:44;15.86;50.10
63202;DHT22;49296;48.188;11.566;2023-03-23T09:11:11;15.81;48.95
63202;DHT22;49296;48.188;11.566;2023-03-23T09:13:39;15.74;48.99
63202;DHT22;49296;48.188;11.566;2023-03-23T09:16:07;15.74;49.28
63202;DHT22;49296;48.188;11.566;2023-03-23T09:18:35;15.90;49.22
63202;DHT22;49296;48.188;11.566;2023-03-23T09:21:03;16.04;49.19
63202;DHT22;49296;48.188;11.566;2023-03-23T09:23:31;16.00;48.69
63202;DHT22;49296;48.188;11.566;2023-03-23T09:26:00;16.08;48.75
63202;DHT22;49296;48.188;11.566;2023-03-23T09:28:27;16.18;49.09
63202;DHT22;49296;48.188;11.566;2023-03-23T09:30:54;16.19;48.62
63202;DHT22;49296;48.188;11.566;2023-03-23T09:33:24;16.39;48.29
63202;DHT22;49296;48.188;11.566;2023-03-23T09:35:51;16.43;47.81
63202;DHT22;49296;48.188;11.566;2023-03-23T09:38:20;16.48;47.74
63202;DHT22;49296;48.188;11.566;2023-03-23T09:40:48;16.60;47.68
63202;DHT22;49296;48.188;11.566;2023-03-23T09:43:31;16.73;47.98
63202;DHT22;49296;48.188;11.566;2023-03-23T09:46:12;16.80;47.38
63202;DHT22;49296;48.188;11.566;2023-03-23T09:48:48;16.88;47.10
63202;DHT22;49296;48.188;11.566;2023-03-23T09:51:24;16.94;46.86
63202;DHT22;49296;48.188;11.566;2023-03-23T09:54:00;17.04;46.48
63202;DHT22;49296;48.188;11.566;2023-03-23T09:56:30;17.00;46.10
63202;DHT22;49296;48.188;11.566;2023-03-23T09:59:03;17.03;46.33
63202;DHT22;49296;48.188;11.566;2023-03-23T10:01:35;17.12;46.31
63202;DHT22;49296;48.188;11.566;2023-03-23T10:04:07;17.10;46.54
63202;DHT22;49296;48.188;11.566;2023-03-23T10:06:36;17.18;46.71
63202;DHT22;49296;48.188;11.566;2023-03-23T10:09:06;17.23;47.03
63202;DHT22;49296;48.188;11.566;2023-03-23T10:11:41;17.22;46.14
63202;DHT22;49296;48.188;11.566;2023-03-23T10:14:29;17.15;46.04
63202;DHT22;49296;48.188;11.566;2023-03-23T10:17:04;17.11;45.83
63202;DHT22;49296;48.188;11.566;2023-03-23T10:19:38;17.12;46.40
63202;DHT22;49296;48.188;11.566;2023-03-23T10:22:10;17.07;46.29
63202;DHT22;49296;48.188;11.566;2023-03-23T10:24:43;17.01;45.87
63202;DHT22;49296;48.188;11.566;2023-03-23T10:27:19;17.07;46.04
63202;DHT22;49296;48.188;11.566;2023-03-23T10:29:52;17.00;45.88
63202;DHT22;49296;48.188;11.566;2023-03-23T10:32:37;17.00;45.98
63202;DHT22;49296;48.188;11.566;2023-03-23T10:35:11;16.98;45.64
63202;DHT22;49296;48.188;11.566;2023-03-23T10:37:43;17.04;45.95
63202;DHT22;49296;48.188;11.566;2023-03-23T10:40:16;17.04;45.19
63202;DHT22;49296;48.188;11.566;2023-03-23T10:42:44;17.08;44.95
63202;DHT22;49296;48.188;11.566;2023-03-23T10:45:16;17.05;44.91
63202;DHT22;49296;48.188;11.566;2023-03-23T10:47:57;17.07;44.95
63202;DHT22;49296;48.188;11.566;2023-03-23T10:50:31;17.00;45.23
63202;DHT22;49296;48.188;11.566;2023-03-23T10:53:00;17.07;45.21
63202;DHT22;49296;48.188;11.566;2023-03-23T10:55:37;17.10;45.27
63202;DHT22;49296;48.188;11.566;2023-03-23T10:58:06;17.11;45.29
63202;DHT22;49296;48.188;11.566;2023-03-23T11:00:33;17.12;45.71
63202;DHT22;49296;48.188;11.566;2023-03-23T11:03:22;17.11;45.94
63202;DHT22;49296;48.188;11.566;2023-03-23T11:05:53;17.14;46.13
63202;DHT22;49296;48.188;11.566;2023-03-23T11:08:24;17.19;46.28
63202;DHT22;49296;48.188;11.566;2023-03-23T11:10:55;17.16;46.27
63202;DHT22;49296;48.188;11.566;2023-03-23T11:13:30;17.25;46.65
63202;DHT22;49296;48.188;11.566;2023-03-23T11:15:59;17.30;46.66
63202;DHT22;49296;48.188;11.566;2023-03-23T11:18:35;17.32;46.58
63202;DHT22;49296;48.188;11.566;2023-03-23T11:21:04;17.32;46.79
63202;DHT22;49296;48.188;11.566;2023-03-23T11:23:34;17.39;46.80
63202;DHT22;49296;48.188;11.566;2023-03-23T11:26:06;17.43;46.61
63202;DHT22;49296;48.188;11.566;2023-03-23T11:28:36;17.50;46.53
63202;DHT22;49296;48.188;11.566;2023-03-23T11:31:05;17.46;46.36
63202;DHT22;49296;48.188;11.566;2023-03-23T11:33:37;17.53;46.44
63202;DHT22;49296;48.188;11.566;2023-03-23T11:36:06;17.59;46.68
63202;DHT22;49296;48.188;11.566;2023-03-23T11:38:34;17.54;46.33
63202;DHT22;49296;48.188;11.566;2023-03-23T11:41:10;17.70;46.11
63202;DHT22;49296;48.188;11.566;2023-03-23T11:43:45;17.73;46.18
63202;DHT22;49296;48.188;11.566;2023-03-23T11:46:20;17.81;46.09
63202;DHT22;49296;48.188;11.566;2023-03-23T11:48:53;17.85;45.71
63202;DHT22;49296;48.188;11.566;2023-03-23T11:51:24;17.83;45.88
63202;DHT22;49296;48.188;11.566;2023-03-23T11:53:57;17.97;46.25
63202;DHT22;49296;48.188;11.566;2023-03-23T11:56:29;17.97;45.80
63202;DHT22;49296;48.188;11.566;2023-03-23T11:58:58;18.02;45.59
63202;DHT22;49296;48.188;11.566;2023-03-23T12:04:38;18.06;45.15
63202;DHT22;49296;48.188;11.566;2023-03-23T12:07:16;18.01;45.07
63202;DHT22;49296;48.188;11.566;2023-03-23T12:09:53;18.12;45.01
63202;DHT22;49296;48.188;11.566;2023-03-23T12:12:29;18.16;44.08
63202;DHT22;49296;48.188;11.566;2023-03-23T12:15:04;18.25;44.67
63202;DHT22;49296;48.188;11.566;2023-03-23T12:17:44;18.30;44.29
63202;DHT22;49296;48.188;11.566;2023-03-23T12:20:18;18.29;44.37
63202;DHT22;49296;48.188;11.566;2023-03-23T12:22:54;18.35;44.14
63202;DHT22;49296;48.188;11.566;2023-03-23T12:25:42;18.30;44.71
63202;DHT22;49296;48.188;11.566;2023-03-23T12:28:21;18.39;44.69
63202;DHT22;49296;48.188;11.566;2023-03-23T12:30:52;18.40;44.86
63202;DHT22;49296;48.188;11.566;2023-03-23T12:33:29;18.40;44.28
63202;DHT22;49296;48.188;11.566;2023-03-23T12:36:08;18.33;44.14
63202;DHT22;49296;48.188;11.566;2023-03-23T12:39:05;18.26;44.40
63202;DHT22;49296;48.188;11.566;2023-03-23T12:41:38;18.33;44.38
63202;DHT22;49296;48.188;11.566;2023-03-23T12:44:11;18.33;43.95
63202;DHT22;49296;48.188;11.566;2023-03-23T12:46:48;18.36;43.60
63202;DHT22;49296;48.188;11.566;2023-03-23T12:49:21;18.46;43.22
63202;DHT22;49296;48.188;11.566;2023-03-23T12:51:52;18.46;42.71
63202;DHT22;49296;48.188;11.566;2023-03-23T12:54:27;18.37;42.22
63202;DHT22;49296;48.188;11.566;2023-03-23T12:57:02;18.43;42.08
63202;DHT22;49296;48.188;11.566;2023-03-23T12:59:38;18.42;42.37
63202;DHT22;49296;48.188;11.566;2023-03-23T13:02:13;18.44;42.29
63202;DHT22;49296;48.188;11.566;2023-03-23T13:04:45;18.43;42.55
63202;DHT22;49296;48.188;11.566;2023-03-23T13:07:14;18.44;42.93
63202;DHT22;49296;48.188;11.566;2023-03-23T13:09:50;18.36;42.70
63202;DHT22;49296;48.188;11.566;2023-03-23T13:12:19;18.37;42.61
63202;DHT22;49296;48.188;11.566;2023-03-23T13:14:56;18.35;41.68
63202;DHT22;49296;48.188;11.566;2023-03-23T13:17:34;18.29;41.66
63202;DHT22;49296;48.188;11.566;2023-03-23T13:20:20;18.33;41.96
63202;DHT22;49296;48.188;11.566;2023-03-23T13:22:53;18.37;42.95
63202;DHT22;49296;48.188;11.566;2023-03-23T13:25:30;18.47;44.82
63202;DHT22;49296;48.188;11.566;2023-03-23T13:28:00;18.22;45.86
63202;DHT22;49296;48.188;11.566;2023-03-23T13:30:29;18.21;46.14
63202;DHT22;49296;48.188;11.566;2023-03-23T13:33:03;18.35;45.89
63202;DHT22;49296;48.188;11.566;2023-03-23T13:35:35;18.46;45.61
63202;DHT22;49296;48.188;11.566;2023-03-23T13:38:12;18.67;45.67
63202;DHT22;49296;48.188;11.566;2023-03-23T13:40:42;18.56;45.88
63202;DHT22;49296;48.188;11.566;2023-03-23T13:43:11;18.57;45.41
63202;DHT22;49296;48.188;11.566;2023-03-23T13:45:45;18.60;45.51
63202;DHT22;49296;48.188;11.566;2023-03-23T13:48:21;18.42;46.00
63202;DHT22;49296;48.188;11.566;2023-03-23T13:50:56;18.37;46.28
63202;DHT22;49296;48.188;11.566;2023-03-23T13:53:26;18.35;46.61
63202;DHT22;49296;48.188;11.566;2023-03-23T13:56:07;18.29;47.01
63202;DHT22;49296;48.188;11.566;2023-03-23T13:58:45;18.15;46.60
63202;DHT22;49296;48.188;11.566;2023-03-23T14:01:17;18.30;46.48
63202;DHT22;49296;48.188;11.566;2023-03-23T14:03:47;18.40;46.34
63202;DHT22;49296;48.188;11.566;2023-03-23T14:06:18;18.30;46.72
63202;DHT22;49296;48.188;11.566;2023-03-23T14:08:48;18.22;46.81
63202;DHT22;49296;48.188;11.566;2023-03-23T14:11:20;18.26;46.45
63202;DHT22;49296;48.188;11.566;2023-03-23T14:13:50;18.16;46.13
63202;DHT22;49296;48.188;11.566;2023-03-23T14:16:21;18.08;46.22
63202;DHT22;49296;48.188;11.566;2023-03-23T14:18:49;18.11;45.87
63202;DHT22;49296;48.188;11.566;2023-03-23T14:21:22;18.01;45.82
63202;DHT22;49296;48.188;11.566;2023-03-23T14:23:50;18.00;45.64
63202;DHT22;49296;48.188;11.566;2023-03-23T14:26:20;17.95;45.60
63202;DHT22;49296;48.188;11.566;2023-03-23T14:28:50;17.92;45.53
63202;DHT22;49296;48.188;11.566;2023-03-23T14:31:21;17.88;45.86
63202;DHT22;49296;48.188;11.566;2023-03-23T14:33:49;17.74;46.14
63202;DHT22;49296;48.188;11.566;2023-03-23T14:36:20;17.77;46.02
63202;DHT22;49296;48.188;11.566;2023-03-23T14:38:54;17.75;46.40
63202;DHT22;49296;48.188;11.566;2023-03-23T14:41:22;17.74;46.39
63202;DHT22;49296;48.188;11.566;2023-03-23T14:43:50;17.66;46.72
63202;DHT22;49296;48.188;11.566;2023-03-23T14:46:18;17.59;46.98
63202;DHT22;49296;48.188;11.566;2023-03-23T14:48:45;17.54;46.89
63202;DHT22;49296;48.188;11.566;2023-03-23T14:51:18;17.45;46.82
63202;DHT22;49296;48.188;11.566;2023-03-23T14:53:45;17.38;47.10
63202;DHT22;49296;48.188;11.566;2023-03-23T14:56:14;17.40;47.11
63202;DHT22;49296;48.188;11.566;2023-03-23T14:58:44;17.35;47.40
63202;DHT22;49296;48.188;11.566;2023-03-23T15:01:15;17.36;47.38
63202;DHT22;49296;48.188;11.566;2023-03-23T15:03:50;17.42;47.65
63202;DHT22;49296;48.188;11.566;2023-03-23T15:06:19;17.39;47.55
63202;DHT22;49296;48.188;11.566;2023-03-23T15:08:49;17.39;47.67
63202;DHT22;49296;48.188;11.566;2023-03-23T15:11:23;17.38;47.55
63202;DHT22;49296;48.188;11.566;2023-03-23T15:13:54;17.32;47.83
63202;DHT22;49296;48.188;11.566;2023-03-23T15:16:25;17.29;47.82
63202;DHT22;49296;48.188;11.566;2023-03-23T15:18:56;17.33;47.90
63202;DHT22;49296;48.188;11.566;2023-03-23T15:21:27;17.42;47.88
63202;DHT22;49296;48.188;11.566;2023-03-23T15:23:54;17.36;48.37
63202;DHT22;49296;48.188;11.566;2023-03-23T15:26:32;17.30;49.01
63202;DHT22;49296;48.188;11.566;2023-03-23T15:29:17;17.29;49.61
63202;DHT22;49296;48.188;11.566;2023-03-23T15:31:47;17.23;49.00
63202;DHT22;49296;48.188;11.566;2023-03-23T15:34:29;17.22;48.90
63202;DHT22;49296;48.188;11.566;2023-03-23T15:36:59;17.16;48.89
63202;DHT22;49296;48.188;11.566;2023-03-23T15:39:27;17.16;49.07
63202;DHT22;49296;48.188;11.566;2023-03-23T15:41:54;17.19;49.33
63202;DHT22;49296;48.188;11.566;2023-03-23T15:44:24;17.16;49.34